sensor_id;sensor_type;location;lat;lon;timestamp;temperature;humidity
14097;DHT22;7125;48.106;11.544;2022-11-04T00:01:47;11.80;99.90
14097;DHT22;7125;48.106;11.544;2022-11-04T00:04:16;11.80;99.90
14097;DHT22;7125;48.106;11.544;2022-11-04T00:06:44;11.80;99.90
14097;DHT22;7125;48.106;11.544;2022-11-04T00:09:14;11.80;99.90
14097;DHT22;7125;48.106;11.544;2022-11-04T00:11:42;11.80;99.90
14097;DHT22;7125;48.106;11.544;2022-11-04T00:14:28;11.80;99.90
14097;DHT22;7125;48.106;11.544;2022-11-04T00:16:56;11.80;99.90
14097;DHT22;7125;48.106;11.544;2022-11-04T00:19:40;11.80;99.90
14097;DHT22;7125;48.106;11.544;2022-11-04T00:22:26;11.70;99.90
14097;DHT22;7125;48.106;11.544;2022-11-04T00:25:11;11.70;99.90
14097;DHT22;7125;48.106;11.544;2022-11-04T00:28:02;11.80;99.90
14097;DHT22;7125;48.106;11.544;2022-11-04T00:30:47;11.70;99.90
14097;DHT22;7125;48.106;11.544;2022-11-04T00:33:15;11.70;99.90
14097;DHT22;7125;48.106;11.544;2022-11-04T00:35:51;11.70;99.90
14097;DHT22;7125;48.106;11.544;2022-11-04T00:38:20;11.70;99.90
14097;DHT22;7125;48.106;11.544;2022-11-04T00:40:47;11.60;99.90
14097;DHT22;7125;48.106;11.544;2022-11-04T00:43:14;11.50;99.90
14097;DHT22;7125;48.106;11.544;2022-11-04T00:45:41;11.40;99.90
14097;DHT22;7125;48.106;11.544;2022-11-04T00:48:08;11.30;99.90
14097;DHT22;7125;48.106;11.544;2022-11-04T00:50:36;11.30;99.90
14097;DHT22;7125;48.106;11.544;2022-11-04T00:53:03;11.30;99.90
14097;DHT22;7125;48.106;11.544;2022-11-04T00:55:32;11.20;99.90
14097;DHT22;7125;48.106;11.544;2022-11-04T00:57:59;11.10;99.90
14097;DHT22;7125;48.106;11.544;2022-11-04T01:00:26;11.00;99.90
14097;DHT22;7125;48.106;11.544;2022-11-04T01:02:55;10.90;99.90
14097;DHT22;7125;48.106;11.544;2022-11-04T01:05:22;10.70;99.90
14097;DHT22;7125;48.106;11.544;2022-11-04T01:07:49;10.60;99.90
14097;DHT22;7125;48.106;11.544;2022-11-04T01:10:16;10.40;99.90
14097;DHT22;7125;48.106;11.544;2022-11-04T01:12:45;10.30;99.90
14097;DHT22;7125;48.106;11.544;2022-11-04T01:15:12;10.10;99.90
14097;DHT22;7125;48.106;11.544;2022-11-04T01:17:38;9.90;99.90
14097;DHT22;7125;48.106;11.544;2022-11-04T01:20:06;9.80;99.90
14097;DHT22;7125;48.106;11.544;2022-11-04T01:22:34;9.70;99.90
14097;DHT22;7125;48.106;11.544;2022-11-04T01:25:01;9.60;99.90
14097;DHT22;7125;48.106;11.544;2022-11-04T01:27:28;9.50;99.90
14097;DHT22;7125;48.106;11.544;2022-11-04T01:29:56;9.50;99.90
14097;DHT22;7125;48.106;11.544;2022-11-04T01:32:26;9.40;99.90
14097;DHT22;7125;48.106;11.544;2022-11-04T01:34:53;9.40;99.90
14097;DHT22;7125;48.106;11.544;2022-11-04T01:37:20;9.30;99.90
14097;DHT22;7125;48.106;11.544;2022-11-04T01:39:47;9.30;99.90
14097;DHT22;7125;48.106;11.544;2022-11-04T01:42:20;9.20;99.90
14097;DHT22;7125;48.106;11.544;2022-11-04T01:44:52;9.10;99.90
14097;DHT22;7125;48.106;11.544;2022-11-04T01:47:25;9.10;99.90
14097;DHT22;7125;48.106;11.544;2022-11-04T01:49:55;9.10;99.90
14097;DHT22;7125;48.106;11.544;2022-11-04T01:52:28;9.00;99.90
14097;DHT22;7125;48.106;11.544;2022-11-04T01:55:00;9.00;99.90
14097;DHT22;7125;48.106;11.544;2022-11-04T01:57:33;8.90;99.90
14097;DHT22;7125;48.106;11.544;2022-11-04T02:00:04;8.90;99.90
14097;DHT22;7125;48.106;11.544;2022-11-04T02:02:45;8.80;99.90
14097;DHT22;7125;48.106;11.544;2022-11-04T02:05:15;8.80;99.90
14097;DHT22;7125;48.106;11.544;2022-11-04T02:07:42;8.80;99.90
14097;DHT22;7125;48.106;11.544;2022-11-04T02:10:09;8.80;99.90
14097;DHT22;7125;48.106;11.544;2022-11-04T02:12:37;8.70;99.90
14097;DHT22;7125;48.106;11.544;2022-11-04T02:15:15;8.70;99.90
14097;DHT22;7125;48.106;11.544;2022-11-04T02:18:05;8.70;99.90
14097;DHT22;7125;48.106;11.544;2022-11-04T02:20:57;8.60;99.90
14097;DHT22;7125;48.106;11.544;2022-11-04T02:23:52;8.60;99.90
14097;DHT22;7125;48.106;11.544;2022-11-04T02:29:39;8.60;99.90
14097;DHT22;7125;48.106;11.544;2022-11-04T02:32:15;8.50;99.90
14097;DHT22;7125;48.106;11.544;2022-11-04T02:34:54;8.50;99.90
14097;DHT22;7125;48.106;11.544;2022-11-04T02:37:30;8.50;99.90
14097;DHT22;7125;48.106;11.544;2022-11-04T02:40:08;8.50;99.90
14097;DHT22;7125;48.106;11.544;2022-11-04T02:42:41;8.50;99.90
14097;DHT22;7125;48.106;11.544;2022-11-04T02:45:16;8.50;99.90
14097;DHT22;7125;48.106;11.544;2022-11-04T02:47:45;8.50;99.90
14097;DHT22;7125;48.106;11.544;2022-11-04T02:50:20;8.50;99.90
14097;DHT22;7125;48.106;11.544;2022-11-04T02:52:56;8.50;99.90
14097;DHT22;7125;48.106;11.544;2022-11-04T02:55:26;8.60;99.90
14097;DHT22;7125;48.106;11.544;2022-11-04T02:57:58;8.60;99.90
14097;DHT22;7125;48.106;11.544;2022-11-04T03:00:29;8.60;99.90
14097;DHT22;7125;48.106;11.544;2022-11-04T03:03:00;8.60;99.90
14097;DHT22;7125;48.106;11.544;2022-11-04T03:05:31;8.60;99.90
14097;DHT22;7125;48.106;11.544;2022-11-04T03:08:02;8.60;99.90
14097;DHT22;7125;48.106;11.544;2022-11-04T03:10:34;8.60;99.90
14097;DHT22;7125;48.106;11.544;2022-11-04T03:13:11;8.60;99.90
14097;DHT22;7125;48.106;11.544;2022-11-04T03:15:46;8.50;99.90
14097;DHT22;7125;48.106;11.544;2022-11-04T03:18:21;8.50;99.90
14097;DHT22;7125;48.106;11.544;2022-11-04T03:20:50;8.50;99.90
14097;DHT22;7125;48.106;11.544;2022-11-04T03:23:20;8.50;99.90
14097;DHT22;7125;48.106;11.544;2022-11-04T03:25:50;8.50;99.90
14097;DHT22;7125;48.106;11.544;2022-11-04T03:28:26;8.50;99.90
14097;DHT22;7125;48.106;11.544;2022-11-04T03:31:00;8.50;99.90
14097;DHT22;7125;48.106;11.544;2022-11-04T03:33:34;8.50;99.90
14097;DHT22;7125;48.106;11.544;2022-11-04T03:36:04;8.50;99.90
14097;DHT22;7125;48.106;11.544;2022-11-04T03:38:33;8.40;99.90
14097;DHT22;7125;48.106;11.544;2022-11-04T03:41:02;8.40;99.90
14097;DHT22;7125;48.106;11.544;2022-11-04T03:43:33;8.40;99.90
14097;DHT22;7125;48.106;11.544;2022-11-04T03:46:02;8.50;99.90
14097;DHT22;7125;48.106;11.544;2022-11-04T03:48:29;8.40;99.90
14097;DHT22;7125;48.106;11.544;2022-11-04T03:50:57;8.40;99.90
14097;DHT22;7125;48.106;11.544;2022-11-04T03:53:26;8.40;99.90
14097;DHT22;7125;48.106;11.544;2022-11-04T03:56:07;8.40;99.90
14097;DHT22;7125;48.106;11.544;2022-11-04T03:58:44;8.40;99.90
14097;DHT22;7125;48.106;11.544;2022-11-04T04:01:23;8.40;99.90
14097;DHT22;7125;48.106;11.544;2022-11-04T04:03:59;8.40;99.90
14097;DHT22;7125;48.106;11.544;2022-11-04T04:06:31;8.30;99.90
14097;DHT22;7125;48.106;11.544;2022-11-04T04:09:04;8.40;99.90
14097;DHT22;7125;48.106;11.544;2022-11-04T04:11:41;8.40;99.90
14097;DHT22;7125;48.106;11.544;2022-11-04T04:14:16;8.40;99.90
14097;DHT22;7125;48.106;11.544;2022-11-04T04:17:09;8.40;99.90
14097;DHT22;7125;48.106;11.544;2022-11-04T04:19:38;8.30;99.90
14097;DHT22;7125;48.106;11.544;2022-11-04T04:22:11;8.30;99.90
14097;DHT22;7125;48.106;11.544;2022-11-04T04:24:41;8.30;99.90
14097;DHT22;7125;48.106;11.544;2022-11-04T04:27:28;8.30;99.90
14097;DHT22;7125;48.106;11.544;2022-11-04T04:29:58;8.30;99.90
14097;DHT22;7125;48.106;11.544;2022-11-04T04:32:29;8.30;99.90
14097;DHT22;7125;48.106;11.544;2022-11-04T04:34:59;8.30;99.90
14097;DHT22;7125;48.106;11.544;2022-11-04T04:37:40;8.30;99.90
14097;DHT22;7125;48.106;11.544;2022-11-04T04:40:10;8.30;99.90
14097;DHT22;7125;48.106;11.544;2022-11-04T04:42:56;8.40;99.90
14097;DHT22;7125;48.106;11.544;2022-11-04T04:45:42;8.30;99.90
14097;DHT22;7125;48.106;11.544;2022-11-04T04:48:11;8.30;99.90
14097;DHT22;7125;48.106;11.544;2022-11-04T04:50:41;8.40;99.90
14097;DHT22;7125;48.106;11.544;2022-11-04T04:53:10;8.40;99.90
14097;DHT22;7125;48.106;11.544;2022-11-04T04:55:37;8.40;99.90
14097;DHT22;7125;48.106;11.544;2022-11-04T04:58:04;8.40;99.90
14097;DHT22;7125;48.106;11.544;2022-11-04T05:00:31;8.40;99.90
14097;DHT22;7125;48.106;11.544;2022-11-04T05:02:59;8.40;99.90
14097;DHT22;7125;48.106;11.544;2022-11-04T05:05:27;8.40;99.90
14097;DHT22;7125;48.106;11.544;2022-11-04T05:07:54;8.40;99.90
14097;DHT22;7125;48.106;11.544;2022-11-04T05:10:22;8.30;99.90
14097;DHT22;7125;48.106;11.544;2022-11-04T05:12:49;8.30;99.90
14097;DHT22;7125;48.106;11.544;2022-11-04T05:15:33;8.30;99.90
14097;DHT22;7125;48.106;11.544;2022-11-04T05:18:02;8.20;99.90
14097;DHT22;7125;48.106;11.544;2022-11-04T05:20:32;8.20;99.90
14097;DHT22;7125;48.106;11.544;2022-11-04T05:22:59;8.20;99.90
14097;DHT22;7125;48.106;11.544;2022-11-04T05:25:26;8.10;99.90
14097;DHT22;7125;48.106;11.544;2022-11-04T05:27:55;8.10;99.90
14097;DHT22;7125;48.106;11.544;2022-11-04T05:30:24;8.10;99.90
14097;DHT22;7125;48.106;11.544;2022-11-04T05:32:52;8.00;99.90
14097;DHT22;7125;48.106;11.544;2022-11-04T05:35:19;8.00;99.90
14097;DHT22;7125;48.106;11.544;2022-11-04T05:37:47;8.00;99.90
14097;DHT22;7125;48.106;11.544;2022-11-04T05:40:14;8.00;99.90
14097;DHT22;7125;48.106;11.544;2022-11-04T05:42:42;8.00;99.90
14097;DHT22;7125;48.106;11.544;2022-11-04T05:45:09;7.90;99.90
14097;DHT22;7125;48.106;11.544;2022-11-04T05:47:36;7.90;99.90
14097;DHT22;7125;48.106;11.544;2022-11-04T05:50:04;7.90;99.90
14097;DHT22;7125;48.106;11.544;2022-11-04T05:52:31;7.90;99.90
14097;DHT22;7125;48.106;11.544;2022-11-04T05:54:59;7.90;99.90
14097;DHT22;7125;48.106;11.544;2022-11-04T05:57:29;7.90;99.90
14097;DHT22;7125;48.106;11.544;2022-11-04T06:02:34;7.90;99.90
14097;DHT22;7125;48.106;11.544;2022-11-04T06:05:08;7.80;99.90
14097;DHT22;7125;48.106;11.544;2022-11-04T06:07:35;7.80;99.90
14097;DHT22;7125;48.106;11.544;2022-11-04T06:10:04;7.80;99.90
14097;DHT22;7125;48.106;11.544;2022-11-04T06:12:31;7.80;99.90
14097;DHT22;7125;48.106;11.544;2022-11-04T06:14:58;7.80;99.90
14097;DHT22;7125;48.106;11.544;2022-11-04T06:17:28;7.70;99.90
14097;DHT22;7125;48.106;11.544;2022-11-04T06:19:54;7.70;99.90
14097;DHT22;7125;48.106;11.544;2022-11-04T06:22:21;7.70;99.90
14097;DHT22;7125;48.106;11.544;2022-11-04T06:24:48;7.70;99.90
14097;DHT22;7125;48.106;11.544;2022-11-04T06:27:18;7.70;99.90
14097;DHT22;7125;48.106;11.544;2022-11-04T06:29:45;7.70;99.90
14097;DHT22;7125;48.106;11.544;2022-11-04T06:32:14;7.60;99.90
14097;DHT22;7125;48.106;11.544;2022-11-04T06:34:41;7.60;99.90
14097;DHT22;7125;48.106;11.544;2022-11-04T06:37:08;7.60;99.90
14097;DHT22;7125;48.106;11.544;2022-11-04T06:39:35;7.60;99.90
14097;DHT22;7125;48.106;11.544;2022-11-04T06:42:03;7.60;99.90
14097;DHT22;7125;48.106;11.544;2022-11-04T06:44:31;7.60;99.90
14097;DHT22;7125;48.106;11.544;2022-11-04T06:47:01;7.60;99.90
14097;DHT22;7125;48.106;11.544;2022-11-04T06:49:28;7.60;99.90
14097;DHT22;7125;48.106;11.544;2022-11-04T06:51:55;7.60;99.90
14097;DHT22;7125;48.106;11.544;2022-11-04T06:54:22;7.60;99.90
14097;DHT22;7125;48.106;11.544;2022-11-04T06:56:50;7.60;99.90
14097;DHT22;7125;48.106;11.544;2022-11-04T06:59:18;7.60;99.90
14097;DHT22;7125;48.106;11.544;2022-11-04T07:01:48;7.60;99.90
14097;DHT22;7125;48.106;11.544;2022-11-04T07:04:15;7.60;99.90
14097;DHT22;7125;48.106;11.544;2022-11-04T07:06:44;7.60;99.90
14097;DHT22;7125;48.106;11.544;2022-11-04T07:09:12;7.60;99.90
14097;DHT22;7125;48.106;11.544;2022-11-04T07:11:40;7.60;99.90
14097;DHT22;7125;48.106;11.544;2022-11-04T07:14:07;7.70;99.90
14097;DHT22;7125;48.106;11.544;2022-11-04T07:16:34;7.70;99.90
14097;DHT22;7125;48.106;11.544;2022-11-04T07:19:02;7.70;99.90
14097;DHT22;7125;48.106;11.544;2022-11-04T07:21:29;7.70;99.90
14097;DHT22;7125;48.106;11.544;2022-11-04T07:23:57;7.70;99.90
14097;DHT22;7125;48.106;11.544;2022-11-04T07:26:24;7.70;99.90
14097;DHT22;7125;48.106;11.544;2022-11-04T07:28:50;7.60;99.90
14097;DHT22;7125;48.106;11.544;2022-11-04T07:31:18;7.70;99.90
14097;DHT22;7125;48.106;11.544;2022-11-04T07:33:46;7.60;99.90
14097;DHT22;7125;48.106;11.544;2022-11-04T07:36:17;7.60;99.90
14097;DHT22;7125;48.106;11.544;2022-11-04T07:38:46;7.60;99.90
14097;DHT22;7125;48.106;11.544;2022-11-04T07:41:14;7.60;99.90
14097;DHT22;7125;48.106;11.544;2022-11-04T07:43:46;7.50;99.90
14097;DHT22;7125;48.106;11.544;2022-11-04T07:46:13;7.50;99.90
14097;DHT22;7125;48.106;11.544;2022-11-04T07:48:41;7.50;99.90
14097;DHT22;7125;48.106;11.544;2022-11-04T07:51:11;7.50;99.90
14097;DHT22;7125;48.106;11.544;2022-11-04T07:53:39;7.50;99.90
14097;DHT22;7125;48.106;11.544;2022-11-04T07:56:09;7.50;99.90
14097;DHT22;7125;48.106;11.544;2022-11-04T07:58:37;7.60;99.90
14097;DHT22;7125;48.106;11.544;2022-11-04T08:01:06;7.50;99.90
14097;DHT22;7125;48.106;11.544;2022-11-04T08:03:34;7.50;99.90
14097;DHT22;7125;48.106;11.544;2022-11-04T08:06:03;7.50;99.90
14097;DHT22;7125;48.106;11.544;2022-11-04T08:08:30;7.50;99.90
14097;DHT22;7125;48.106;11.544;2022-11-04T08:11:00;7.50;99.90
14097;DHT22;7125;48.106;11.544;2022-11-04T08:13:28;7.50;99.90
14097;DHT22;7125;48.106;11.544;2022-11-04T08:15:55;7.50;99.90
14097;DHT22;7125;48.106;11.544;2022-11-04T08:18:22;7.50;99.90
14097;DHT22;7125;48.106;11.544;2022-11-04T08:20:50;7.50;99.90
14097;DHT22;7125;48.106;11.544;2022-11-04T08:23:17;7.50;99.90
14097;DHT22;7125;48.106;11.544;2022-11-04T08:25:44;7.50;99.90
14097;DHT22;7125;48.106;11.544;2022-11-04T08:28:13;7.50;99.90
14097;DHT22;7125;48.106;11.544;2022-11-04T08:30:51;7.60;99.90
14097;DHT22;7125;48.106;11.544;2022-11-04T08:33:19;7.60;99.90
14097;DHT22;7125;48.106;11.544;2022-11-04T08:35:46;7.60;99.90
14097;DHT22;7125;48.106;11.544;2022-11-04T08:38:13;7.60;99.90
14097;DHT22;7125;48.106;11.544;2022-11-04T08:40:40;7.60;99.90
14097;DHT22;7125;48.106;11.544;2022-11-04T08:43:07;7.60;99.90
14097;DHT22;7125;48.106;11.544;2022-11-04T08:45:39;7.60;99.90
14097;DHT22;7125;48.106;11.544;2022-11-04T08:48:06;7.70;99.90
14097;DHT22;7125;48.106;11.544;2022-11-04T08:50:34;7.70;99.90
14097;DHT22;7125;48.106;11.544;2022-11-04T08:53:02;7.70;99.90
14097;DHT22;7125;48.106;11.544;2022-11-04T08:55:31;7.70;99.90
14097;DHT22;7125;48.106;11.544;2022-11-04T08:57:59;7.70;99.90
14097;DHT22;7125;48.106;11.544;2022-11-04T09:00:27;7.80;99.90
14097;DHT22;7125;48.106;11.544;2022-11-04T09:02:55;7.80;99.90
14097;DHT22;7125;48.106;11.544;2022-11-04T09:05:22;7.90;99.90
14097;DHT22;7125;48.106;11.544;2022-11-04T09:07:51;7.90;99.90
14097;DHT22;7125;48.106;11.544;2022-11-04T09:10:18;7.90;99.90
14097;DHT22;7125;48.106;11.544;2022-11-04T09:12:45;7.80;99.90
14097;DHT22;7125;48.106;11.544;2022-11-04T09:15:12;7.80;99.90
14097;DHT22;7125;48.106;11.544;2022-11-04T09:17:40;7.80;99.90
14097;DHT22;7125;48.106;11.544;2022-11-04T09:20:10;7.80;99.90
14097;DHT22;7125;48.106;11.544;2022-11-04T09:22:38;7.80;99.90
14097;DHT22;7125;48.106;11.544;2022-11-04T09:25:05;7.80;99.90
14097;DHT22;7125;48.106;11.544;2022-11-04T09:27:33;7.70;99.90
14097;DHT22;7125;48.106;11.544;2022-11-04T09:30:00;7.70;99.90
14097;DHT22;7125;48.106;11.544;2022-11-04T09:32:29;7.70;99.90
14097;DHT22;7125;48.106;11.544;2022-11-04T09:34:56;7.70;99.90
14097;DHT22;7125;48.106;11.544;2022-11-04T09:37:24;7.70;99.90
14097;DHT22;7125;48.106;11.544;2022-11-04T09:39:51;7.70;99.90
14097;DHT22;7125;48.106;11.544;2022-11-04T09:42:36;7.60;99.90
14097;DHT22;7125;48.106;11.544;2022-11-04T09:45:10;7.70;99.90
14097;DHT22;7125;48.106;11.544;2022-11-04T09:47:41;7.70;99.90
14097;DHT22;7125;48.106;11.544;2022-11-04T09:50:17;7.70;99.90
14097;DHT22;7125;48.106;11.544;2022-11-04T09:52:53;7.70;99.90
14097;DHT22;7125;48.106;11.544;2022-11-04T09:55:25;7.70;99.90
14097;DHT22;7125;48.106;11.544;2022-11-04T09:57:56;7.70;99.90
14097;DHT22;7125;48.106;11.544;2022-11-04T10:00:24;7.70;99.90
14097;DHT22;7125;48.106;11.544;2022-11-04T10:03:00;7.70;99.90
14097;DHT22;7125;48.106;11.544;2022-11-04T10:05:42;7.70;99.90
14097;DHT22;7125;48.106;11.544;2022-11-04T10:08:40;7.70;99.90
14097;DHT22;7125;48.106;11.544;2022-11-04T10:11:17;7.70;99.90
14097;DHT22;7125;48.106;11.544;2022-11-04T10:13:56;7.80;99.90
14097;DHT22;7125;48.106;11.544;2022-11-04T10:16:39;7.80;99.90
14097;DHT22;7125;48.106;11.544;2022-11-04T10:19:29;7.90;99.90
14097;DHT22;7125;48.106;11.544;2022-11-04T10:22:06;8.00;99.90
14097;DHT22;7125;48.106;11.544;2022-11-04T10:24:41;8.00;99.90
14097;DHT22;7125;48.106;11.544;2022-11-04T10:27:14;8.00;99.90
14097;DHT22;7125;48.106;11.544;2022-11-04T10:29:44;8.00;99.90
14097;DHT22;7125;48.106;11.544;2022-11-04T10:32:15;8.00;99.90
14097;DHT22;7125;48.106;11.544;2022-11-04T10:34:47;8.10;99.90
14097;DHT22;7125;48.106;11.544;2022-11-04T10:37:16;8.10;99.90
14097;DHT22;7125;48.106;11.544;2022-11-04T10:39:46;8.00;99.90
14097;DHT22;7125;48.106;11.544;2022-11-04T10:42:16;8.00;99.90
14097;DHT22;7125;48.106;11.544;2022-11-04T10:44:44;8.00;99.90
14097;DHT22;7125;48.106;11.544;2022-11-04T10:47:27;8.00;99.90
14097;DHT22;7125;48.106;11.544;2022-11-04T10:50:21;8.00;99.90
14097;DHT22;7125;48.106;11.544;2022-11-04T10:52:54;8.00;99.90
14097;DHT22;7125;48.106;11.544;2022-11-04T10:55:32;8.00;99.90
14097;DHT22;7125;48.106;11.544;2022-11-04T10:58:02;8.10;99.90
14097;DHT22;7125;48.106;11.544;2022-11-04T11:00:34;8.10;99.90
14097;DHT22;7125;48.106;11.544;2022-11-04T11:03:03;8.10;99.90
14097;DHT22;7125;48.106;11.544;2022-11-04T11:05:47;8.10;99.90
14097;DHT22;7125;48.106;11.544;2022-11-04T11:08:27;8.00;99.90
14097;DHT22;7125;48.106;11.544;2022-11-04T11:11:13;8.00;99.90
14097;DHT22;7125;48.106;11.544;2022-11-04T11:13:51;8.00;99.90
14097;DHT22;7125;48.106;11.544;2022-11-04T11:16:38;8.00;99.90
14097;DHT22;7125;48.106;11.544;2022-11-04T11:19:17;8.00;99.90
14097;DHT22;7125;48.106;11.544;2022-11-04T11:21:57;8.00;99.90
14097;DHT22;7125;48.106;11.544;2022-11-04T11:24:38;8.00;99.90
14097;DHT22;7125;48.106;11.544;2022-11-04T11:27:17;8.00;99.90
14097;DHT22;7125;48.106;11.544;2022-11-04T11:29:57;8.00;99.90
14097;DHT22;7125;48.106;11.544;2022-11-04T11:32:34;8.00;99.90
14097;DHT22;7125;48.106;11.544;2022-11-04T11:35:21;7.90;99.90
14097;DHT22;7125;48.106;11.544;2022-11-04T11:38:01;8.00;99.90
14097;DHT22;7125;48.106;11.544;2022-11-04T11:40:41;8.00;99.90
14097;DHT22;7125;48.106;11.544;2022-11-04T11:43:25;8.00;99.90
14097;DHT22;7125;48.106;11.544;2022-11-04T11:46:09;8.00;99.90
14097;DHT22;7125;48.106;11.544;2022-11-04T11:48:51;7.90;99.90
14097;DHT22;7125;48.106;11.544;2022-11-04T11:51:30;7.80;99.90
14097;DHT22;7125;48.106;11.544;2022-11-04T11:54:25;7.80;99.90
14097;DHT22;7125;48.106;11.544;2022-11-04T11:57:28;7.80;99.90
14097;DHT22;7125;48.106;11.544;2022-11-04T12:00:13;7.70;99.90
14097;DHT22;7125;48.106;11.544;2022-11-04T12:02:57;7.70;99.90
14097;DHT22;7125;48.106;11.544;2022-11-04T12:05:46;7.70;99.90
14097;DHT22;7125;48.106;11.544;2022-11-04T12:08:50;7.70;99.90
14097;DHT22;7125;48.106;11.544;2022-11-04T12:11:30;7.60;99.90
14097;DHT22;7125;48.106;11.544;2022-11-04T12:14:04;7.60;99.90
14097;DHT22;7125;48.106;11.544;2022-11-04T12:16:41;7.60;99.90
14097;DHT22;7125;48.106;11.544;2022-11-04T12:22:17;7.50;99.90
14097;DHT22;7125;48.106;11.544;2022-11-04T12:25:05;7.50;99.90
14097;DHT22;7125;48.106;11.544;2022-11-04T12:27:52;7.60;99.90
14097;DHT22;7125;48.106;11.544;2022-11-04T12:30:47;7.60;99.90
14097;DHT22;7125;48.106;11.544;2022-11-04T12:33:28;7.70;99.90
14097;DHT22;7125;48.106;11.544;2022-11-04T12:36:03;7.70;99.90
14097;DHT22;7125;48.106;11.544;2022-11-04T12:38:46;7.70;99.90
14097;DHT22;7125;48.106;11.544;2022-11-04T12:41:24;7.80;99.90
14097;DHT22;7125;48.106;11.544;2022-11-04T12:44:01;7.80;99.90
14097;DHT22;7125;48.106;11.544;2022-11-04T12:46:35;7.90;99.90
14097;DHT22;7125;48.106;11.544;2022-11-04T12:49:17;7.90;99.90
14097;DHT22;7125;48.106;11.544;2022-11-04T12:51:52;7.90;99.90
14097;DHT22;7125;48.106;11.544;2022-11-04T12:54:45;7.80;99.90
14097;DHT22;7125;48.106;11.544;2022-11-04T12:57:24;7.80;99.90
14097;DHT22;7125;48.106;11.544;2022-11-04T13:00:09;7.70;99.90
14097;DHT22;7125;48.106;11.544;2022-11-04T13:02:41;7.80;99.90
14097;DHT22;7125;48.106;11.544;2022-11-04T13:05:26;7.70;99.90
14097;DHT22;7125;48.106;11.544;2022-11-04T13:07:59;7.60;99.90
14097;DHT22;7125;48.106;11.544;2022-11-04T13:10:38;7.60;99.90
14097;DHT22;7125;48.106;11.544;2022-11-04T13:13:06;7.50;99.90
14097;DHT22;7125;48.106;11.544;2022-11-04T13:15:42;7.50;99.90
14097;DHT22;7125;48.106;11.544;2022-11-04T13:18:14;7.50;99.90
14097;DHT22;7125;48.106;11.544;2022-11-04T13:20:46;7.50;99.90
14097;DHT22;7125;48.106;11.544;2022-11-04T13:23:19;7.50;99.90
14097;DHT22;7125;48.106;11.544;2022-11-04T13:25:48;7.50;99.90
14097;DHT22;7125;48.106;11.544;2022-11-04T13:28:19;7.50;99.90
14097;DHT22;7125;48.106;11.544;2022-11-04T13:30:52;7.50;99.90
14097;DHT22;7125;48.106;11.544;2022-11-04T13:33:29;7.40;99.90
14097;DHT22;7125;48.106;11.544;2022-11-04T13:36:06;7.40;99.90
14097;DHT22;7125;48.106;11.544;2022-11-04T13:38:39;7.40;99.90
14097;DHT22;7125;48.106;11.544;2022-11-04T13:41:31;7.50;99.90
14097;DHT22;7125;48.106;11.544;2022-11-04T13:44:05;7.50;99.90
14097;DHT22;7125;48.106;11.544;2022-11-04T13:46:46;7.50;99.90
14097;DHT22;7125;48.106;11.544;2022-11-04T13:49:19;7.50;99.90
14097;DHT22;7125;48.106;11.544;2022-11-04T13:52:04;7.50;99.90
14097;DHT22;7125;48.106;11.544;2022-11-04T13:54:37;7.50;99.90
14097;DHT22;7125;48.106;11.544;2022-11-04T13:57:10;7.50;99.90
14097;DHT22;7125;48.106;11.544;2022-11-04T13:59:38;7.50;99.90
14097;DHT22;7125;48.106;11.544;2022-11-04T14:02:24;7.50;99.90
14097;DHT22;7125;48.106;11.544;2022-11-04T14:04:51;7.50;99.90
14097;DHT22;7125;48.106;11.544;2022-11-04T14:10:38;7.60;99.90
14097;DHT22;7125;48.106;11.544;2022-11-04T14:13:43;7.60;99.90
14097;DHT22;7125;48.106;11.544;2022-11-04T14:16:42;7.60;99.90
14097;DHT22;7125;48.106;11.544;2022-11-04T14:19:44;7.60;99.90
14097;DHT22;7125;48.106;11.544;2022-11-04T14:22:13;7.60;99.90
14097;DHT22;7125;48.106;11.544;2022-11-04T14:24:43;7.60;99.90
14097;DHT22;7125;48.106;11.544;2022-11-04T14:27:28;7.60;99.90
14097;DHT22;7125;48.106;11.544;2022-11-04T14:29:58;7.60;99.90
14097;DHT22;7125;48.106;11.544;2022-11-04T14:32:29;7.70;99.90
14097;DHT22;7125;48.106;11.544;2022-11-04T14:35:00;7.60;99.90
14097;DHT22;7125;48.106;11.544;2022-11-04T14:37:31;7.60;99.90
14097;DHT22;7125;48.106;11.544;2022-11-04T14:40:02;7.60;99.90
14097;DHT22;7125;48.106;11.544;2022-11-04T14:42:43;7.60;99.90
14097;DHT22;7125;48.106;11.544;2022-11-04T14:45:15;7.50;99.90
14097;DHT22;7125;48.106;11.544;2022-11-04T14:47:47;7.50;99.90
14097;DHT22;7125;48.106;11.544;2022-11-04T14:50:17;7.50;99.90
14097;DHT22;7125;48.106;11.544;2022-11-04T14:52:48;7.40;99.90
14097;DHT22;7125;48.106;11.544;2022-11-04T14:55:19;7.40;99.90
14097;DHT22;7125;48.106;11.544;2022-11-04T14:57:49;7.30;99.90
14097;DHT22;7125;48.106;11.544;2022-11-04T15:00:25;7.30;99.90
14097;DHT22;7125;48.106;11.544;2022-11-04T15:03:09;7.30;99.90
14097;DHT22;7125;48.106;11.544;2022-11-04T15:05:44;7.30;99.90
14097;DHT22;7125;48.106;11.544;2022-11-04T15:08:29;7.30;99.90
14097;DHT22;7125;48.106;11.544;2022-11-04T15:11:01;7.20;99.90
14097;DHT22;7125;48.106;11.544;2022-11-04T15:13:32;7.20;99.90
14097;DHT22;7125;48.106;11.544;2022-11-04T15:16:05;7.20;99.90
14097;DHT22;7125;48.106;11.544;2022-11-04T15:18:36;7.20;99.90
14097;DHT22;7125;48.106;11.544;2022-11-04T15:21:06;7.10;99.90
14097;DHT22;7125;48.106;11.544;2022-11-04T15:23:40;7.00;99.90
14097;DHT22;7125;48.106;11.544;2022-11-04T15:26:19;7.10;99.90
14097;DHT22;7125;48.106;11.544;2022-11-04T15:28:48;7.00;99.90
14097;DHT22;7125;48.106;11.544;2022-11-04T15:31:20;6.90;99.90
14097;DHT22;7125;48.106;11.544;2022-11-04T15:33:49;6.90;99.90
14097;DHT22;7125;48.106;11.544;2022-11-04T15:36:18;6.90;99.90
14097;DHT22;7125;48.106;11.544;2022-11-04T15:38:49;6.90;99.90
14097;DHT22;7125;48.106;11.544;2022-11-04T15:41:21;6.80;99.90
14097;DHT22;7125;48.106;11.544;2022-11-04T15:44:16;6.80;99.90
14097;DHT22;7125;48.106;11.544;2022-11-04T15:46:51;6.80;99.90
14097;DHT22;7125;48.106;11.544;2022-11-04T15:49:21;6.80;99.90
14097;DHT22;7125;48.106;11.544;2022-11-04T15:51:51;6.70;99.90
14097;DHT22;7125;48.106;11.544;2022-11-04T15:54:20;6.70;99.90
14097;DHT22;7125;48.106;11.544;2022-11-04T15:56:53;6.70;99.90
14097;DHT22;7125;48.106;11.544;2022-11-04T15:59:24;6.70;99.90
14097;DHT22;7125;48.106;11.544;2022-11-04T16:01:52;6.70;99.90
14097;DHT22;7125;48.106;11.544;2022-11-04T16:04:21;6.70;99.90
14097;DHT22;7125;48.106;11.544;2022-11-04T16:07:04;6.60;99.90
14097;DHT22;7125;48.106;11.544;2022-11-04T16:09:44;6.60;99.90
14097;DHT22;7125;48.106;11.544;2022-11-04T16:12:14;6.50;99.90
14097;DHT22;7125;48.106;11.544;2022-11-04T16:14:49;6.60;99.90
14097;DHT22;7125;48.106;11.544;2022-11-04T16:17:17;6.50;99.90
14097;DHT22;7125;48.106;11.544;2022-11-04T16:19:46;6.50;99.90
14097;DHT22;7125;48.106;11.544;2022-11-04T16:22:18;6.50;99.90
14097;DHT22;7125;48.106;11.544;2022-11-04T16:24:47;6.40;99.90
14097;DHT22;7125;48.106;11.544;2022-11-04T16:27:18;6.30;99.90
14097;DHT22;7125;48.106;11.544;2022-11-04T16:29:52;6.20;99.90
14097;DHT22;7125;48.106;11.544;2022-11-04T16:32:25;6.20;99.90
14097;DHT22;7125;48.106;11.544;2022-11-04T16:35:00;6.10;99.90